In Rescue
 
Open Full Screen Window  High Contrast Mode
September 19, 2019 4:12 PM CDT
Weather Information
Wind Direction
  ---
Wind Speed
  00 kt (0 mph)
Wind Gust
  00 kt (0 mph)
Altimeter
29.99 in
Visibility
10 SM
Temperature
27° C
81° F
Dewpoint
15° C
59° F
Humidity
48%
1hr Rain Fall
00.00 in.
24hr Rain Fall
00.00 in.
Sky Condition
Scattered @ 5,000 ft
VFR

METAR KADC 192112Z AUTO 00000KT 10SM SCT050 27/15 A2999 RMK AO2

FAA Disclaimer: The data displayed is for advisory purposes only and is not to be used for flight planning or operations.